KMTW

Manitowoc County Airport

Manitowoc, Wisconsin, USA
METAR KMTW 161015Z AUTO 01004KT 3SM -SN BR OVC038 M08/M10 A2986 RMK AO2 P0000 FZRANO
Observed Flight Rules
Dec-16 @ 10:15 UTC (49 minutes ago) Marginal Visual Flight Rules
Wind Visibility Clouds Conditions
10° at 4 knots 3 miles
  • Overcast at 3,800' AGL
  • Light Snow
  • Mist
Temperatures Readings Precipitation
Current -8°C / 18°F
Dewpoint -10°C / 14°F
Humidity 86%
Altimeter 29.86" Hg
Pressure 1011 hPa
Elevation 198
Current Rain 0.005
METAR KMTW 161015Z AUTO 01004KT 3SM -SN BR OVC038 M08/M10 A2986 RMK AO2 P0000 FZRANO
Observed Flight Rules
Dec-16 @ 10:15 UTC
(49 minutes ago)
MVFR
Wind Visibility
10° at 4 knots 3 miles
Clouds
  • Overcast at 3,800' AGL
Conditions
  • Light Snow
  • Mist
Temperature Dewpoint
-8°C / 18°F -10°C / 14°F
Humidity Altimeter Pressure
86% 29.86" Hg 1011 hPa
Current Rain
0.005